createdAt,value
2022-08-17T06:03:37.375Z,8.77
2022-08-17T06:14:26.752Z,8.70
2022-08-17T06:17:31.082Z,8.10
2022-08-17T06:20:45.604Z,7.82
2022-08-17T06:24:10.405Z,7.87
2022-08-17T06:27:55.701Z,7.20
2022-08-17T06:31:19.099Z,7.50
2022-08-17T06:45:20.203Z,7.47
2022-08-17T06:48:24.872Z,7.05
2022-08-17T06:51:40.913Z,7.47
2022-08-17T06:55:02.838Z,7.82
2022-08-17T07:01:52.295Z,7.35
2022-08-17T07:04:55.163Z,9.73
2022-08-17T07:08:04.992Z,7.87
2022-08-17T07:17:53.577Z,7.80
2022-08-17T07:21:11.960Z,7.22
2022-08-17T07:24:44.107Z,7.40
2022-08-17T07:28:06.006Z,7.10
2022-08-17T07:31:13.311Z,7.28
2022-08-17T07:34:16.185Z,6.78
2022-08-17T07:37:19.420Z,7.07
2022-08-17T07:40:35.323Z,6.95
2022-08-17T07:43:52.275Z,6.85
2022-08-17T07:47:14.472Z,7.10
2022-08-17T07:50:27.818Z,7.18
2022-08-17T07:53:31.959Z,6.90
2022-08-17T07:56:48.437Z,7.20
2022-08-17T08:00:01.716Z,8.35
2022-08-17T08:03:20.315Z,9.20
2022-08-17T08:06:26.363Z,8.88
2022-08-17T08:09:39.925Z,8.20
2022-08-17T08:13:14.605Z,6.87
2022-08-17T08:16:17.325Z,6.30
2022-08-17T08:19:21.154Z,6.90
2022-08-17T08:22:38.339Z,7.45
2022-08-17T08:26:08.238Z,6.65
2022-08-17T08:29:29.825Z,6.70
2022-08-17T08:33:04.190Z,6.68
2022-08-17T08:37:13.003Z,6.62
2022-08-17T08:41:00.983Z,6.55
2022-08-17T08:44:20.917Z,6.80
2022-08-17T08:48:55.879Z,6.70
2022-08-17T08:52:16.849Z,6.37
2022-08-17T08:55:59.027Z,6.50
2022-08-17T08:59:04.621Z,6.10
2022-08-17T09:02:46.789Z,6.18
2022-08-17T09:06:37.644Z,6.82
2022-08-17T09:09:59.377Z,6.37
2022-08-17T09:13:19.621Z,6.60
2022-08-17T09:16:33.126Z,6.30
2022-08-17T09:19:44.815Z,6.30
2022-08-17T09:22:53.562Z,6.55
2022-08-17T09:26:05.424Z,6.43
2022-08-17T09:29:12.939Z,6.12
2022-08-17T09:32:24.768Z,5.97
2022-08-17T09:35:36.944Z,5.93
2022-08-17T09:38:49.072Z,5.82
2022-08-17T09:42:10.761Z,6.32
2022-08-17T09:45:29.073Z,5.93
2022-08-17T09:48:55.375Z,6.40
2022-08-17T09:52:15.569Z,6.12
2022-08-17T09:55:22.574Z,6.43
2022-08-17T09:58:52.275Z,6.00
2022-08-17T10:02:13.277Z,6.35
2022-08-17T10:05:47.555Z,6.00
2022-08-17T10:08:53.247Z,5.20
2022-08-17T10:12:17.767Z,6.05
2022-08-17T10:15:44.831Z,5.55
2022-08-17T10:19:05.042Z,5.10
2022-08-17T10:22:40.245Z,5.10
2022-08-17T10:26:12.970Z,5.50
2022-08-17T10:29:24.360Z,5.35
2022-08-17T10:32:57.621Z,5.40
2022-08-17T10:36:05.341Z,6.12
2022-08-17T10:39:52.214Z,5.68
2022-08-17T10:43:00.687Z,5.65
2022-08-17T10:46:30.417Z,5.30
2022-08-17T10:49:47.805Z,5.18
2022-08-17T10:52:51.286Z,4.82
2022-08-17T10:56:12.219Z,6.22
2022-08-17T10:59:37.006Z,4.90
2022-08-17T11:02:52.642Z,4.37
2022-08-17T11:06:06.851Z,4.50
2022-08-17T11:09:15.401Z,4.90
2022-08-17T11:15:38.560Z,4.05
2022-08-17T11:19:22.513Z,4.20
2022-08-17T11:22:33.605Z,4.40
2022-08-17T11:25:39.432Z,4.50
2022-08-17T11:28:52.780Z,4.40
2022-08-17T11:32:13.935Z,4.53
2022-08-17T11:35:20.527Z,4.25
2022-08-17T11:38:49.572Z,4.28
2022-08-17T11:42:17.917Z,4.03
2022-08-17T11:45:35.958Z,4.10
2022-08-17T11:49:04.653Z,4.20
2022-08-17T11:52:14.024Z,3.67
2022-08-17T11:55:36.320Z,4.20
2022-08-17T11:58:44.246Z,4.32
2022-08-17T12:01:56.741Z,4.10
2022-08-17T12:05:14.787Z,4.40
2022-08-17T12:08:21.349Z,4.22
2022-08-17T12:11:55.601Z,4.00
2022-08-17T12:15:10.049Z,3.87
2022-08-17T12:18:28.967Z,3.83
2022-08-17T12:21:43.567Z,4.15
2022-08-17T12:24:59.354Z,4.00
2022-08-17T12:28:06.582Z,4.30
2022-08-17T12:31:30.635Z,4.10
2022-08-17T12:34:40.842Z,4.10
2022-08-17T12:37:47.123Z,4.35
2022-08-17T12:40:58.146Z,4.12
2022-08-17T12:44:06.725Z,3.97
2022-08-17T12:47:21.980Z,4.35
2022-08-17T12:50:29.259Z,4.55
2022-08-17T12:53:35.802Z,4.37
2022-08-17T12:56:39.286Z,4.43
2022-08-17T12:59:46.167Z,4.12
2022-08-17T13:03:15.709Z,4.00
2022-08-17T13:09:35.888Z,4.30
2022-08-17T13:12:43.086Z,3.85
2022-08-17T13:16:01.346Z,4.07
2022-08-17T13:19:15.342Z,4.07
2022-08-17T13:22:23.558Z,4.05
2022-08-17T13:25:27.766Z,4.07
2022-08-17T13:28:36.394Z,3.90
2022-08-17T13:31:46.575Z,4.55
2022-08-17T13:35:14.324Z,4.28
2022-08-17T13:38:47.232Z,4.18
2022-08-17T13:41:52.973Z,4.20
2022-08-17T13:44:55.833Z,4.12
2022-08-17T13:48:16.269Z,4.10
2022-08-17T13:51:43.868Z,3.90
2022-08-17T13:54:51.314Z,4.15
2022-08-17T13:58:04.214Z,4.30
2022-08-17T14:01:30.906Z,3.90
2022-08-17T14:04:35.124Z,4.20
2022-08-17T14:07:40.385Z,3.78
2022-08-17T14:10:57.831Z,3.83
2022-08-17T14:14:00.923Z,3.42
2022-08-17T14:17:04.659Z,3.95
2022-08-17T14:20:10.959Z,4.00
2022-08-17T14:23:14.553Z,4.25
2022-08-17T14:26:17.660Z,3.50
2022-08-17T14:29:22.418Z,3.72
2022-08-17T14:32:28.546Z,3.42
2022-08-17T14:35:34.604Z,4.03
2022-08-17T14:38:37.881Z,3.40
2022-08-17T14:41:41.884Z,3.30
2022-08-17T14:44:44.422Z,3.47
2022-08-17T14:47:47.431Z,3.60
2022-08-17T14:50:50.320Z,3.70
2022-08-17T14:53:53.123Z,3.60
2022-08-17T14:57:00.882Z,3.40
2022-08-17T15:00:19.438Z,3.53
2022-08-17T15:03:23.403Z,3.62
2022-08-17T15:06:26.413Z,3.30
2022-08-17T15:09:29.134Z,3.80
2022-08-17T15:12:34.773Z,3.83
2022-08-17T15:15:37.563Z,3.75
2022-08-17T15:18:41.269Z,3.42
2022-08-17T15:21:47.051Z,3.65
2022-08-17T15:24:50.031Z,3.83
